sensor_id;sensor_type;location;lat;lon;timestamp;P1;P2;P0
77699;PMS5003;66867;42.658;23.320;2023-06-22T00:00:00;28;28;
77699;PMS5003;66867;42.658;23.320;2023-06-22T00:01:00;26;26;
77699;PMS5003;66867;42.658;23.320;2023-06-22T00:02:00;25;23;
77699;PMS5003;66867;42.658;23.320;2023-06-22T00:03:00;28;28;
77699;PMS5003;66867;42.658;23.320;2023-06-22T00:04:00;23;23;
77699;PMS5003;66867;42.658;23.320;2023-06-22T00:05:00;24;24;
77699;PMS5003;66867;42.658;23.320;2023-06-22T00:06:00;25;24;
77699;PMS5003;66867;42.658;23.320;2023-06-22T00:07:00;29;29;
77699;PMS5003;66867;42.658;23.320;2023-06-22T00:08:04;29;28;
77699;PMS5003;66867;42.658;23.320;2023-06-22T00:09:00;27;26;
77699;PMS5003;66867;42.658;23.320;2023-06-22T00:10:00;26;25;
77699;PMS5003;66867;42.658;23.320;2023-06-22T00:11:00;33;31;
77699;PMS5003;66867;42.658;23.320;2023-06-22T00:12:00;25;24;
77699;PMS5003;66867;42.658;23.320;2023-06-22T00:13:00;27;26;
77699;PMS5003;66867;42.658;23.320;2023-06-22T00:14:00;25;25;
77699;PMS5003;66867;42.658;23.320;2023-06-22T00:15:00;28;27;
77699;PMS5003;66867;42.658;23.320;2023-06-22T00:16:00;28;27;
77699;PMS5003;66867;42.658;23.320;2023-06-22T00:17:00;25;25;
77699;PMS5003;66867;42.658;23.320;2023-06-22T00:18:00;29;29;
77699;PMS5003;66867;42.658;23.320;2023-06-22T00:19:00;26;26;
77699;PMS5003;66867;42.658;23.320;2023-06-22T00:20:00;29;28;
77699;PMS5003;66867;42.658;23.320;2023-06-22T00:21:00;31;30;
77699;PMS5003;66867;42.658;23.320;2023-06-22T00:22:00;29;28;
77699;PMS5003;66867;42.658;23.320;2023-06-22T00:23:00;28;28;
77699;PMS5003;66867;42.658;23.320;2023-06-22T00:24:00;30;30;
77699;PMS5003;66867;42.658;23.320;2023-06-22T00:25:00;33;31;
77699;PMS5003;66867;42.658;23.320;2023-06-22T00:26:00;31;29;
77699;PMS5003;66867;42.658;23.320;2023-06-22T00:27:00;29;28;
77699;PMS5003;66867;42.658;23.320;2023-06-22T00:28:00;27;27;
77699;PMS5003;66867;42.658;23.320;2023-06-22T00:29:00;29;27;
77699;PMS5003;66867;42.658;23.320;2023-06-22T00:30:00;31;29;
77699;PMS5003;66867;42.658;23.320;2023-06-22T00:31:00;30;29;
77699;PMS5003;66867;42.658;23.320;2023-06-22T00:32:00;29;27;
77699;PMS5003;66867;42.658;23.320;2023-06-22T00:33:00;27;27;
77699;PMS5003;66867;42.658;23.320;2023-06-22T00:34:00;27;26;
77699;PMS5003;66867;42.658;23.320;2023-06-22T00:35:00;31;30;
77699;PMS5003;66867;42.658;23.320;2023-06-22T00:36:00;28;28;
77699;PMS5003;66867;42.658;23.320;2023-06-22T00:37:00;34;31;
77699;PMS5003;66867;42.658;23.320;2023-06-22T00:38:00;30;29;
77699;PMS5003;66867;42.658;23.320;2023-06-22T00:39:00;28;28;
77699;PMS5003;66867;42.658;23.320;2023-06-22T00:40:00;34;31;
77699;PMS5003;66867;42.658;23.320;2023-06-22T00:41:00;29;27;
77699;PMS5003;66867;42.658;23.320;2023-06-22T00:42:00;27;27;
77699;PMS5003;66867;42.658;23.320;2023-06-22T00:43:00;34;32;
77699;PMS5003;66867;42.658;23.320;2023-06-22T00:44:00;31;30;
77699;PMS5003;66867;42.658;23.320;2023-06-22T00:45:00;31;29;
77699;PMS5003;66867;42.658;23.320;2023-06-22T00:46:00;29;29;
77699;PMS5003;66867;42.658;23.320;2023-06-22T00:47:00;30;28;
77699;PMS5003;66867;42.658;23.320;2023-06-22T00:48:01;34;32;
77699;PMS5003;66867;42.658;23.320;2023-06-22T00:49:00;32;30;
77699;PMS5003;66867;42.658;23.320;2023-06-22T00:50:00;32;30;
77699;PMS5003;66867;42.658;23.320;2023-06-22T00:51:01;32;30;
77699;PMS5003;66867;42.658;23.320;2023-06-22T00:52:02;31;30;
77699;PMS5003;66867;42.658;23.320;2023-06-22T00:53:03;30;30;
77699;PMS5003;66867;42.658;23.320;2023-06-22T00:54:00;32;31;
77699;PMS5003;66867;42.658;23.320;2023-06-22T00:55:01;31;30;
77699;PMS5003;66867;42.658;23.320;2023-06-22T00:56:00;30;30;
77699;PMS5003;66867;42.658;23.320;2023-06-22T00:57:00;29;29;
77699;PMS5003;66867;42.658;23.320;2023-06-22T00:58:00;33;31;
77699;PMS5003;66867;42.658;23.320;2023-06-22T00:59:00;31;30;
77699;PMS5003;66867;42.658;23.320;2023-06-22T01:00:00;31;30;
77699;PMS5003;66867;42.658;23.320;2023-06-22T01:01:00;29;28;
77699;PMS5003;66867;42.658;23.320;2023-06-22T01:02:00;32;31;
77699;PMS5003;66867;42.658;23.320;2023-06-22T01:03:01;29;29;
77699;PMS5003;66867;42.658;23.320;2023-06-22T01:04:00;32;30;
77699;PMS5003;66867;42.658;23.320;2023-06-22T01:05:00;31;30;
77699;PMS5003;66867;42.658;23.320;2023-06-22T01:06:07;31;30;
77699;PMS5003;66867;42.658;23.320;2023-06-22T01:08:08;26;26;
77699;PMS5003;66867;42.658;23.320;2023-06-22T01:09:05;32;30;
77699;PMS5003;66867;42.658;23.320;2023-06-22T01:11:06;37;34;
77699;PMS5003;66867;42.658;23.320;2023-06-22T01:12:02;28;28;
77699;PMS5003;66867;42.658;23.320;2023-06-22T01:13:04;30;29;
77699;PMS5003;66867;42.658;23.320;2023-06-22T01:14:06;35;32;
77699;PMS5003;66867;42.658;23.320;2023-06-22T01:15:06;35;32;
77699;PMS5003;66867;42.658;23.320;2023-06-22T01:16:03;33;32;
77699;PMS5003;66867;42.658;23.320;2023-06-22T01:17:01;30;30;
77699;PMS5003;66867;42.658;23.320;2023-06-22T01:18:04;37;33;
77699;PMS5003;66867;42.658;23.320;2023-06-22T01:19:09;31;29;
77699;PMS5003;66867;42.658;23.320;2023-06-22T01:20:02;32;31;
77699;PMS5003;66867;42.658;23.320;2023-06-22T01:21:00;29;28;
77699;PMS5003;66867;42.658;23.320;2023-06-22T01:22:01;33;32;
77699;PMS5003;66867;42.658;23.320;2023-06-22T01:23:07;30;30;
77699;PMS5003;66867;42.658;23.320;2023-06-22T01:25:16;33;31;
77699;PMS5003;66867;42.658;23.320;2023-06-22T01:26:18;34;31;
77699;PMS5003;66867;42.658;23.320;2023-06-22T01:27:09;31;30;
77699;PMS5003;66867;42.658;23.320;2023-06-22T01:28:08;33;32;
77699;PMS5003;66867;42.658;23.320;2023-06-22T01:29:00;31;30;
77699;PMS5003;66867;42.658;23.320;2023-06-22T01:30:02;28;28;
77699;PMS5003;66867;42.658;23.320;2023-06-22T01:31:00;30;30;
77699;PMS5003;66867;42.658;23.320;2023-06-22T01:32:02;27;27;
77699;PMS5003;66867;42.658;23.320;2023-06-22T01:33:01;33;31;
77699;PMS5003;66867;42.658;23.320;2023-06-22T01:34:03;34;31;
77699;PMS5003;66867;42.658;23.320;2023-06-22T01:35:02;30;29;
77699;PMS5003;66867;42.658;23.320;2023-06-22T01:36:01;28;28;
77699;PMS5003;66867;42.658;23.320;2023-06-22T01:37:01;31;29;
77699;PMS5003;66867;42.658;23.320;2023-06-22T01:38:00;30;30;
77699;PMS5003;66867;42.658;23.320;2023-06-22T01:39:01;30;29;
77699;PMS5003;66867;42.658;23.320;2023-06-22T01:40:01;28;28;
77699;PMS5003;66867;42.658;23.320;2023-06-22T01:41:01;30;29;
77699;PMS5003;66867;42.658;23.320;2023-06-22T01:42:01;33;30;
77699;PMS5003;66867;42.658;23.320;2023-06-22T01:43:01;34;32;
77699;PMS5003;66867;42.658;23.320;2023-06-22T01:44:00;26;25;
77699;PMS5003;66867;42.658;23.320;2023-06-22T01:45:01;28;27;
77699;PMS5003;66867;42.658;23.320;2023-06-22T01:46:01;30;30;
77699;PMS5003;66867;42.658;23.320;2023-06-22T01:47:00;31;30;
77699;PMS5003;66867;42.658;23.320;2023-06-22T01:48:00;34;31;
77699;PMS5003;66867;42.658;23.320;2023-06-22T01:49:01;28;28;
77699;PMS5003;66867;42.658;23.320;2023-06-22T01:50:00;32;30;
77699;PMS5003;66867;42.658;23.320;2023-06-22T01:51:00;32;30;
77699;PMS5003;66867;42.658;23.320;2023-06-22T01:52:00;31;30;
77699;PMS5003;66867;42.658;23.320;2023-06-22T01:53:00;32;31;
77699;PMS5003;66867;42.658;23.320;2023-06-22T01:54:01;29;29;
77699;PMS5003;66867;42.658;23.320;2023-06-22T01:55:00;30;30;
77699;PMS5003;66867;42.658;23.320;2023-06-22T01:56:00;31;30;
77699;PMS5003;66867;42.658;23.320;2023-06-22T01:57:00;33;31;
77699;PMS5003;66867;42.658;23.320;2023-06-22T01:58:00;25;25;
77699;PMS5003;66867;42.658;23.320;2023-06-22T01:59:12;32;30;
77699;PMS5003;66867;42.658;23.320;2023-06-22T02:00:04;29;28;
77699;PMS5003;66867;42.658;23.320;2023-06-22T02:01:09;33;32;
77699;PMS5003;66867;42.658;23.320;2023-06-22T02:02:09;34;31;
77699;PMS5003;66867;42.658;23.320;2023-06-22T02:03:04;33;32;
77699;PMS5003;66867;42.658;23.320;2023-06-22T02:04:06;31;30;
77699;PMS5003;66867;42.658;23.320;2023-06-22T02:05:05;33;30;
77699;PMS5003;66867;42.658;23.320;2023-06-22T02:06:05;34;32;
77699;PMS5003;66867;42.658;23.320;2023-06-22T02:07:00;34;32;
77699;PMS5003;66867;42.658;23.320;2023-06-22T02:08:06;32;31;
77699;PMS5003;66867;42.658;23.320;2023-06-22T02:09:02;31;29;
77699;PMS5003;66867;42.658;23.320;2023-06-22T02:10:02;32;30;
77699;PMS5003;66867;42.658;23.320;2023-06-22T02:11:01;31;30;
77699;PMS5003;66867;42.658;23.320;2023-06-22T02:12:02;32;31;
77699;PMS5003;66867;42.658;23.320;2023-06-22T02:13:05;32;30;
77699;PMS5003;66867;42.658;23.320;2023-06-22T02:14:00;29;29;
77699;PMS5003;66867;42.658;23.320;2023-06-22T02:15:00;35;32;
77699;PMS5003;66867;42.658;23.320;2023-06-22T02:16:00;38;33;
77699;PMS5003;66867;42.658;23.320;2023-06-22T02:17:00;37;33;
77699;PMS5003;66867;42.658;23.320;2023-06-22T02:18:00;35;32;
77699;PMS5003;66867;42.658;23.320;2023-06-22T02:19:01;32;31;
77699;PMS5003;66867;42.658;23.320;2023-06-22T02:20:02;30;30;
77699;PMS5003;66867;42.658;23.320;2023-06-22T02:21:00;34;32;
77699;PMS5003;66867;42.658;23.320;2023-06-22T02:22:00;35;33;
77699;PMS5003;66867;42.658;23.320;2023-06-22T02:23:00;30;30;
77699;PMS5003;66867;42.658;23.320;2023-06-22T02:24:00;34;32;
77699;PMS5003;66867;42.658;23.320;2023-06-22T02:25:00;34;32;
77699;PMS5003;66867;42.658;23.320;2023-06-22T02:26:01;30;29;
77699;PMS5003;66867;42.658;23.320;2023-06-22T02:27:01;28;27;
77699;PMS5003;66867;42.658;23.320;2023-06-22T02:28:00;28;28;
77699;PMS5003;66867;42.658;23.320;2023-06-22T02:29:00;38;32;
77699;PMS5003;66867;42.658;23.320;2023-06-22T02:30:00;31;30;
77699;PMS5003;66867;42.658;23.320;2023-06-22T02:31:00;32;30;
77699;PMS5003;66867;42.658;23.320;2023-06-22T02:32:00;36;32;
77699;PMS5003;66867;42.658;23.320;2023-06-22T02:33:00;36;33;
77699;PMS5003;66867;42.658;23.320;2023-06-22T02:34:00;31;30;
77699;PMS5003;66867;42.658;23.320;2023-06-22T02:35:00;32;31;
77699;PMS5003;66867;42.658;23.320;2023-06-22T02:36:00;31;30;
77699;PMS5003;66867;42.658;23.320;2023-06-22T02:37:00;34;31;
77699;PMS5003;66867;42.658;23.320;2023-06-22T02:38:01;28;28;
77699;PMS5003;66867;42.658;23.320;2023-06-22T02:39:00;31;29;
77699;PMS5003;66867;42.658;23.320;2023-06-22T02:40:00;31;29;
77699;PMS5003;66867;42.658;23.320;2023-06-22T02:41:00;34;32;
77699;PMS5003;66867;42.658;23.320;2023-06-22T02:42:00;32;31;
77699;PMS5003;66867;42.658;23.320;2023-06-22T02:48:00;39;33;
77699;PMS5003;66867;42.658;23.320;2023-06-22T02:49:00;32;31;
77699;PMS5003;66867;42.658;23.320;2023-06-22T02:50:00;33;31;
77699;PMS5003;66867;42.658;23.320;2023-06-22T02:51:00;31;30;
77699;PMS5003;66867;42.658;23.320;2023-06-22T02:52:00;30;29;
77699;PMS5003;66867;42.658;23.320;2023-06-22T02:53:00;28;28;
77699;PMS5003;66867;42.658;23.320;2023-06-22T02:54:00;32;30;
77699;PMS5003;66867;42.658;23.320;2023-06-22T02:55:00;32;30;
77699;PMS5003;66867;42.658;23.320;2023-06-22T02:56:02;35;32;
77699;PMS5003;66867;42.658;23.320;2023-06-22T02:57:00;30;30;
77699;PMS5003;66867;42.658;23.320;2023-06-22T02:58:00;28;28;
77699;PMS5003;66867;42.658;23.320;2023-06-22T02:59:00;32;30;
77699;PMS5003;66867;42.658;23.320;2023-06-22T03:00:03;33;31;
77699;PMS5003;66867;42.658;23.320;2023-06-22T03:01:00;32;30;
77699;PMS5003;66867;42.658;23.320;2023-06-22T03:02:00;30;29;
77699;PMS5003;66867;42.658;23.320;2023-06-22T03:03:00;34;32;
77699;PMS5003;66867;42.658;23.320;2023-06-22T03:04:00;32;30;
77699;PMS5003;66867;42.658;23.320;2023-06-22T03:05:00;32;31;
77699;PMS5003;66867;42.658;23.320;2023-06-22T03:06:00;32;30;
77699;PMS5003;66867;42.658;23.320;2023-06-22T03:07:00;31;30;
77699;PMS5003;66867;42.658;23.320;2023-06-22T03:08:00;29;29;
77699;PMS5003;66867;42.658;23.320;2023-06-22T03:09:02;31;30;
77699;PMS5003;66867;42.658;23.320;2023-06-22T03:10:00;34;32;
77699;PMS5003;66867;42.658;23.320;2023-06-22T03:11:00;32;31;
77699;PMS5003;66867;42.658;23.320;2023-06-22T03:12:00;33;32;
77699;PMS5003;66867;42.658;23.320;2023-06-22T03:13:00;34;32;
77699;PMS5003;66867;42.658;23.320;2023-06-22T03:14:01;33;32;
77699;PMS5003;66867;42.658;23.320;2023-06-22T03:15:00;28;28;
77699;PMS5003;66867;42.658;23.320;2023-06-22T03:16:00;30;30;
77699;PMS5003;66867;42.658;23.320;2023-06-22T03:17:00;31;30;
77699;PMS5003;66867;42.658;23.320;2023-06-22T03:18:00;34;31;
77699;PMS5003;66867;42.658;23.320;2023-06-22T03:19:00;32;30;
77699;PMS5003;66867;42.658;23.320;2023-06-22T03:20:01;31;30;
77699;PMS5003;66867;42.658;23.320;2023-06-22T03:21:00;29;28;
77699;PMS5003;66867;42.658;23.320;2023-06-22T03:22:00;30;30;
77699;PMS5003;66867;42.658;23.320;2023-06-22T03:23:00;39;35;
77699;PMS5003;66867;42.658;23.320;2023-06-22T03:24:00;34;30;
77699;PMS5003;66867;42.658;23.320;2023-06-22T03:25:00;36;33;
77699;PMS5003;66867;42.658;23.320;2023-06-22T03:26:00;35;32;
77699;PMS5003;66867;42.658;23.320;2023-06-22T03:27:00;31;30;
77699;PMS5003;66867;42.658;23.320;2023-06-22T03:28:00;35;32;
77699;PMS5003;66867;42.658;23.320;2023-06-22T03:29:00;31;30;
77699;PMS5003;66867;42.658;23.320;2023-06-22T03:30:00;38;34;
77699;PMS5003;66867;42.658;23.320;2023-06-22T03:31:00;34;32;
77699;PMS5003;66867;42.658;23.320;2023-06-22T03:32:00;31;30;
77699;PMS5003;66867;42.658;23.320;2023-06-22T03:33:00;36;33;
77699;PMS5003;66867;42.658;23.320;2023-06-22T03:34:00;41;35;
77699;PMS5003;66867;42.658;23.320;2023-06-22T03:35:00;31;29;
77699;PMS5003;66867;42.658;23.320;2023-06-22T03:36:00;33;31;
77699;PMS5003;66867;42.658;23.320;2023-06-22T03:37:00;34;32;
77699;PMS5003;66867;42.658;23.320;2023-06-22T03:38:00;34;32;
77699;PMS5003;66867;42.658;23.320;2023-06-22T03:39:00;35;33;
77699;PMS5003;66867;42.658;23.320;2023-06-22T03:40:00;31;30;
77699;PMS5003;66867;42.658;23.320;2023-06-22T03:41:00;32;31;
77699;PMS5003;66867;42.658;23.320;2023-06-22T03:42:00;35;32;
77699;PMS5003;66867;42.658;23.320;2023-06-22T03:43:00;33;32;
77699;PMS5003;66867;42.658;23.320;2023-06-22T03:44:00;35;32;
77699;PMS5003;66867;42.658;23.320;2023-06-22T03:45:00;32;30;
77699;PMS5003;66867;42.658;23.320;2023-06-22T03:46:00;35;32;
77699;PMS5003;66867;42.658;23.320;2023-06-22T03:47:00;36;33;
77699;PMS5003;66867;42.658;23.320;2023-06-22T03:48:01;35;33;
77699;PMS5003;66867;42.658;23.320;2023-06-22T03:49:00;32;31;
77699;PMS5003;66867;42.658;23.320;2023-06-22T03:50:00;39;35;
77699;PMS5003;66867;42.658;23.320;2023-06-22T03:51:01;39;35;
77699;PMS5003;66867;42.658;23.320;2023-06-22T03:52:01;33;30;
77699;PMS5003;66867;42.658;23.320;2023-06-22T03:53:00;37;33;
77699;PMS5003;66867;42.658;23.320;2023-06-22T03:54:00;36;31;
77699;PMS5003;66867;42.658;23.320;2023-06-22T03:55:00;33;32;
77699;PMS5003;66867;42.658;23.320;2023-06-22T03:56:00;39;34;
77699;PMS5003;66867;42.658;23.320;2023-06-22T03:57:00;35;31;
77699;PMS5003;66867;42.658;23.320;2023-06-22T03:58:00;34;31;
77699;PMS5003;66867;42.658;23.320;2023-06-22T03:59:00;30;29;
77699;PMS5003;66867;42.658;23.320;2023-06-22T04:00:00;36;33;
77699;PMS5003;66867;42.658;23.320;2023-06-22T04:01:00;33;31;
77699;PMS5003;66867;42.658;23.320;2023-06-22T04:02:00;37;33;
77699;PMS5003;66867;42.658;23.320;2023-06-22T04:03:00;39;35;
77699;PMS5003;66867;42.658;23.320;2023-06-22T04:04:00;37;32;
77699;PMS5003;66867;42.658;23.320;2023-06-22T04:05:00;36;33;
77699;PMS5003;66867;42.658;23.320;2023-06-22T04:06:00;37;34;
77699;PMS5003;66867;42.658;23.320;2023-06-22T04:07:00;40;35;
77699;PMS5003;66867;42.658;23.320;2023-06-22T04:08:00;39;35;
77699;PMS5003;66867;42.658;23.320;2023-06-22T04:09:00;36;33;
77699;PMS5003;66867;42.658;23.320;2023-06-22T04:10:00;40;35;
77699;PMS5003;66867;42.658;23.320;2023-06-22T04:11:00;45;37;
77699;PMS5003;66867;42.658;23.320;2023-06-22T04:12:01;41;36;
77699;PMS5003;66867;42.658;23.320;2023-06-22T04:13:00;43;37;
77699;PMS5003;66867;42.658;23.320;2023-06-22T04:14:00;45;38;
77699;PMS5003;66867;42.658;23.320;2023-06-22T04:15:00;40;36;
77699;PMS5003;66867;42.658;23.320;2023-06-22T04:16:00;40;35;
77699;PMS5003;66867;42.658;23.320;2023-06-22T04:17:01;41;36;
77699;PMS5003;66867;42.658;23.320;2023-06-22T04:18:00;43;36;
77699;PMS5003;66867;42.658;23.320;2023-06-22T04:19:00;41;36;
77699;PMS5003;66867;42.658;23.320;2023-06-22T04:20:00;43;36;
77699;PMS5003;66867;42.658;23.320;2023-06-22T04:21:01;43;36;
77699;PMS5003;66867;42.658;23.320;2023-06-22T04:22:00;46;38;
77699;PMS5003;66867;42.658;23.320;2023-06-22T04:23:00;38;35;
77699;PMS5003;66867;42.658;23.320;2023-06-22T04:24:00;42;36;
77699;PMS5003;66867;42.658;23.320;2023-06-22T04:25:00;36;33;
77699;PMS5003;66867;42.658;23.320;2023-06-22T04:26:00;40;36;
77699;PMS5003;66867;42.658;23.320;2023-06-22T04:27:00;40;35;
77699;PMS5003;66867;42.658;23.320;2023-06-22T04:28:00;42;36;
77699;PMS5003;66867;42.658;23.320;2023-06-22T04:29:00;39;35;
77699;PMS5003;66867;42.658;23.320;2023-06-22T04:30:00;41;35;
77699;PMS5003;66867;42.658;23.320;2023-06-22T04:31:01;40;36;
77699;PMS5003;66867;42.658;23.320;2023-06-22T04:32:00;41;36;
77699;PMS5003;66867;42.658;23.320;2023-06-22T04:33:00;41;35;
77699;PMS5003;66867;42.658;23.320;2023-06-22T04:34:00;46;38;
77699;PMS5003;66867;42.658;23.320;2023-06-22T04:35:00;41;35;
77699;PMS5003;66867;42.658;23.320;2023-06-22T04:36:00;43;36;
77699;PMS5003;66867;42.658;23.320;2023-06-22T04:37:00;42;36;
77699;PMS5003;66867;42.658;23.320;2023-06-22T04:38:00;45;37;
77699;PMS5003;66867;42.658;23.320;2023-06-22T04:39:00;43;38;
77699;PMS5003;66867;42.658;23.320;2023-06-22T04:40:00;43;38;
77699;PMS5003;66867;42.658;23.320;2023-06-22T04:41:00;42;36;
77699;PMS5003;66867;42.658;23.320;2023-06-22T04:42:00;43;37;
77699;PMS5003;66867;42.658;23.320;2023-06-22T04:43:00;45;38;
77699;PMS5003;66867;42.658;23.320;2023-06-22T04:44:00;40;36;
77699;PMS5003;66867;42.658;23.320;2023-06-22T04:45:00;35;32;
77699;PMS5003;66867;42.658;23.320;2023-06-22T04:46:00;45;38;
77699;PMS5003;66867;42.658;23.320;2023-06-22T04:47:01;43;38;
77699;PMS5003;66867;42.658;23.320;2023-06-22T04:48:00;45;38;
77699;PMS5003;66867;42.658;23.320;2023-06-22T04:49:00;39;34;
77699;PMS5003;66867;42.658;23.320;2023-06-22T04:51:01;41;36;
77699;PMS5003;66867;42.658;23.320;2023-06-22T04:52:01;41;36;
77699;PMS5003;66867;42.658;23.320;2023-06-22T04:53:00;44;38;
77699;PMS5003;66867;42.658;23.320;2023-06-22T04:54:00;43;37;
77699;PMS5003;66867;42.658;23.320;2023-06-22T04:55:00;44;36;
77699;PMS5003;66867;42.658;23.320;2023-06-22T04:56:00;41;36;
77699;PMS5003;66867;42.658;23.320;2023-06-22T04:57:01;41;36;
77699;PMS5003;66867;42.658;23.320;2023-06-22T04:58:00;43;38;
77699;PMS5003;66867;42.658;23.320;2023-06-22T04:59:00;40;35;
77699;PMS5003;66867;42.658;23.320;2023-06-22T05:00:01;39;34;
77699;PMS5003;66867;42.658;23.320;2023-06-22T05:01:00;38;34;
77699;PMS5003;66867;42.658;23.320;2023-06-22T05:02:03;40;35;
77699;PMS5003;66867;42.658;23.320;2023-06-22T05:03:00;41;36;
77699;PMS5003;66867;42.658;23.320;2023-06-22T05:04:00;42;36;
77699;PMS5003;66867;42.658;23.320;2023-06-22T05:05:00;50;41;
77699;PMS5003;66867;42.658;23.320;2023-06-22T05:06:00;42;36;
77699;PMS5003;66867;42.658;23.320;2023-06-22T05:07:01;45;39;
77699;PMS5003;66867;42.658;23.320;2023-06-22T05:08:00;43;36;
77699;PMS5003;66867;42.658;23.320;2023-06-22T05:09:00;45;38;
77699;PMS5003;66867;42.658;23.320;2023-06-22T05:10:02;40;36;
77699;PMS5003;66867;42.658;23.320;2023-06-22T05:11:00;42;35;
77699;PMS5003;66867;42.658;23.320;2023-06-22T05:12:01;40;35;
77699;PMS5003;66867;42.658;23.320;2023-06-22T05:13:00;40;36;
77699;PMS5003;66867;42.658;23.320;2023-06-22T05:14:00;45;38;
77699;PMS5003;66867;42.658;23.320;2023-06-22T05:15:00;37;34;
77699;PMS5003;66867;42.658;23.320;2023-06-22T05:16:00;40;36;
77699;PMS5003;66867;42.658;23.320;2023-06-22T05:17:00;42;36;
77699;PMS5003;66867;42.658;23.320;2023-06-22T05:18:00;46;40;
77699;PMS5003;66867;42.658;23.320;2023-06-22T05:19:00;46;40;
77699;PMS5003;66867;42.658;23.320;2023-06-22T05:20:01;40;35;
77699;PMS5003;66867;42.658;23.320;2023-06-22T05:21:00;42;37;
77699;PMS5003;66867;42.658;23.320;2023-06-22T05:22:00;42;36;
77699;PMS5003;66867;42.658;23.320;2023-06-22T05:23:00;41;36;
77699;PMS5003;66867;42.658;23.320;2023-06-22T05:24:00;39;35;
77699;PMS5003;66867;42.658;23.320;2023-06-22T05:25:00;38;34;
77699;PMS5003;66867;42.658;23.320;2023-06-22T05:26:00;33;32;
77699;PMS5003;66867;42.658;23.320;2023-06-22T05:27:00;40;35;
77699;PMS5003;66867;42.658;23.320;2023-06-22T05:28:00;42;37;
77699;PMS5003;66867;42.658;23.320;2023-06-22T05:29:01;43;37;
77699;PMS5003;66867;42.658;23.320;2023-06-22T05:30:00;41;35;
77699;PMS5003;66867;42.658;23.320;2023-06-22T05:31:00;44;36;
77699;PMS5003;66867;42.658;23.320;2023-06-22T05:32:00;37;33;
77699;PMS5003;66867;42.658;23.320;2023-06-22T05:41:00;36;33;
77699;PMS5003;66867;42.658;23.320;2023-06-22T05:42:00;38;34;
77699;PMS5003;66867;42.658;23.320;2023-06-22T05:43:00;43;37;
77699;PMS5003;66867;42.658;23.320;2023-06-22T05:44:00;41;35;
77699;PMS5003;66867;42.658;23.320;2023-06-22T05:45:00;40;36;
77699;PMS5003;66867;42.658;23.320;2023-06-22T05:46:01;38;35;
77699;PMS5003;66867;42.658;23.320;2023-06-22T05:47:00;38;34;
77699;PMS5003;66867;42.658;23.320;2023-06-22T05:48:00;43;38;
77699;PMS5003;66867;42.658;23.320;2023-06-22T05:50:00;37;33;
77699;PMS5003;66867;42.658;23.320;2023-06-22T05:51:00;40;35;
77699;PMS5003;66867;42.658;23.320;2023-06-22T05:52:00;36;32;
77699;PMS5003;66867;42.658;23.320;2023-06-22T05:53:00;38;34;
77699;PMS5003;66867;42.658;23.320;2023-06-22T05:54:00;39;35;
77699;PMS5003;66867;42.658;23.320;2023-06-22T05:55:01;46;37;
77699;PMS5003;66867;42.658;23.320;2023-06-22T05:56:00;39;36;
77699;PMS5003;66867;42.658;23.320;2023-06-22T05:57:00;42;36;
77699;PMS5003;66867;42.658;23.320;2023-06-22T05:58:00;34;32;
77699;PMS5003;66867;42.658;23.320;2023-06-22T05:59:00;35;32;
77699;PMS5003;66867;42.658;23.320;2023-06-22T06:00:00;42;36;
77699;PMS5003;66867;42.658;23.320;2023-06-22T06:01:00;40;35;
77699;PMS5003;66867;42.658;23.320;2023-06-22T06:02:00;39;35;
77699;PMS5003;66867;42.658;23.320;2023-06-22T06:03:00;40;35;
77699;PMS5003;66867;42.658;23.320;2023-06-22T06:04:00;39;33;
77699;PMS5003;66867;42.658;23.320;2023-06-22T06:05:00;39;35;
77699;PMS5003;66867;42.658;23.320;2023-06-22T06:06:00;37;34;
77699;PMS5003;66867;42.658;23.320;2023-06-22T06:07:00;40;36;
77699;PMS5003;66867;42.658;23.320;2023-06-22T06:08:01;38;34;
77699;PMS5003;66867;42.658;23.320;2023-06-22T06:09:00;35;32;
77699;PMS5003;66867;42.658;23.320;2023-06-22T06:10:00;40;36;
77699;PMS5003;66867;42.658;23.320;2023-06-22T06:11:00;39;35;
77699;PMS5003;66867;42.658;23.320;2023-06-22T06:12:00;36;33;
77699;PMS5003;66867;42.658;23.320;2023-06-22T06:13:00;35;33;
77699;PMS5003;66867;42.658;23.320;2023-06-22T06:14:00;40;35;
77699;PMS5003;66867;42.658;23.320;2023-06-22T06:15:00;41;36;
77699;PMS5003;66867;42.658;23.320;2023-06-22T06:16:00;36;33;
77699;PMS5003;66867;42.658;23.320;2023-06-22T06:17:00;37;34;
77699;PMS5003;66867;42.658;23.320;2023-06-22T06:18:00;39;35;
77699;PMS5003;66867;42.658;23.320;2023-06-22T06:19:00;39;34;
77699;PMS5003;66867;42.658;23.320;2023-06-22T06:20:00;45;38;
77699;PMS5003;66867;42.658;23.320;2023-06-22T06:21:00;40;36;
77699;PMS5003;66867;42.658;23.320;2023-06-22T06:22:00;40;35;
77699;PMS5003;66867;42.658;23.320;2023-06-22T06:23:00;41;36;
77699;PMS5003;66867;42.658;23.320;2023-06-22T06:24:00;44;37;
77699;PMS5003;66867;42.658;23.320;2023-06-22T06:25:00;38;35;
77699;PMS5003;66867;42.658;23.320;2023-06-22T06:26:00;39;34;
77699;PMS5003;66867;42.658;23.320;2023-06-22T06:27:00;37;33;
77699;PMS5003;66867;42.658;23.320;2023-06-22T06:28:00;39;34;
77699;PMS5003;66867;42.658;23.320;2023-06-22T06:29:00;35;32;
77699;PMS5003;66867;42.658;23.320;2023-06-22T06:30:00;41;34;
77699;PMS5003;66867;42.658;23.320;2023-06-22T06:31:00;40;35;
77699;PMS5003;66867;42.658;23.320;2023-06-22T06:32:00;41;34;
77699;PMS5003;66867;42.658;23.320;2023-06-22T06:33:00;45;38;
77699;PMS5003;66867;42.658;23.320;2023-06-22T06:34:00;39;34;
77699;PMS5003;66867;42.658;23.320;2023-06-22T06:35:00;35;32;
77699;PMS5003;66867;42.658;23.320;2023-06-22T06:36:00;41;35;
77699;PMS5003;66867;42.658;23.320;2023-06-22T06:37:00;40;35;
77699;PMS5003;66867;42.658;23.320;2023-06-22T06:38:00;38;35;
77699;PMS5003;66867;42.658;23.320;2023-06-22T06:39:00;42;36;
77699;PMS5003;66867;42.658;23.320;2023-06-22T06:40:00;35;31;
77699;PMS5003;66867;42.658;23.320;2023-06-22T06:41:00;38;34;
77699;PMS5003;66867;42.658;23.320;2023-06-22T06:42:00;40;35;
77699;PMS5003;66867;42.658;23.320;2023-06-22T06:43:00;34;32;
77699;PMS5003;66867;42.658;23.320;2023-06-22T06:44:00;41;36;
77699;PMS5003;66867;42.658;23.320;2023-06-22T06:45:00;34;32;
77699;PMS5003;66867;42.658;23.320;2023-06-22T06:46:00;37;33;
77699;PMS5003;66867;42.658;23.320;2023-06-22T06:47:00;38;34;
77699;PMS5003;66867;42.658;23.320;2023-06-22T06:48:00;35;32;
77699;PMS5003;66867;42.658;23.320;2023-06-22T06:49:00;38;34;